sensor_id;sensor_type;location;lat;lon;timestamp;pressure;altitude;pressure_sealevel;temperature;humidity
57847;BME280;43675;50.030;21.952;2023-04-08T00:01:19;99040.77;;;2.41;74.29
57847;BME280;43675;50.030;21.952;2023-04-08T00:03:46;99034.77;;;2.39;74.09
57847;BME280;43675;50.030;21.952;2023-04-08T00:06:12;99033.84;;;2.40;74.25
57847;BME280;43675;50.030;21.952;2023-04-08T00:08:38;99024.89;;;2.39;74.24
57847;BME280;43675;50.030;21.952;2023-04-08T00:11:05;99036.23;;;2.37;74.13
57847;BME280;43675;50.030;21.952;2023-04-08T00:13:31;99034.02;;;2.32;74.30
57847;BME280;43675;50.030;21.952;2023-04-08T00:15:58;99030.98;;;2.27;74.21
57847;BME280;43675;50.030;21.952;2023-04-08T00:18:24;99028.71;;;2.24;74.49
57847;BME280;43675;50.030;21.952;2023-04-08T00:20:50;99029.29;;;2.20;74.36
57847;BME280;43675;50.030;21.952;2023-04-08T00:23:17;99027.60;;;2.18;74.26
57847;BME280;43675;50.030;21.952;2023-04-08T00:25:43;99023.84;;;2.15;74.45
57847;BME280;43675;50.030;21.952;2023-04-08T00:28:09;99022.45;;;2.13;74.45
57847;BME280;43675;50.030;21.952;2023-04-08T00:30:36;99025.63;;;2.11;74.57
57847;BME280;43675;50.030;21.952;2023-04-08T00:33:02;99027.00;;;2.10;74.72
57847;BME280;43675;50.030;21.952;2023-04-08T00:35:29;99026.27;;;2.08;74.55
57847;BME280;43675;50.030;21.952;2023-04-08T00:37:55;99030.36;;;2.08;74.54
57847;BME280;43675;50.030;21.952;2023-04-08T00:40:21;99032.21;;;2.07;74.71
57847;BME280;43675;50.030;21.952;2023-04-08T00:42:48;99032.30;;;2.06;74.63
57847;BME280;43675;50.030;21.952;2023-04-08T00:45:14;99029.58;;;2.05;74.55
57847;BME280;43675;50.030;21.952;2023-04-08T00:47:41;99030.02;;;2.04;74.61
57847;BME280;43675;50.030;21.952;2023-04-08T00:50:07;99030.59;;;2.04;74.77
57847;BME280;43675;50.030;21.952;2023-04-08T00:52:34;99027.88;;;2.03;74.73
57847;BME280;43675;50.030;21.952;2023-04-08T00:55:00;99033.25;;;2.02;74.83
57847;BME280;43675;50.030;21.952;2023-04-08T00:57:26;99033.90;;;2.01;74.75
57847;BME280;43675;50.030;21.952;2023-04-08T00:59:53;99040.35;;;2.00;74.56
57847;BME280;43675;50.030;21.952;2023-04-08T01:02:29;99041.51;;;1.99;74.55
57847;BME280;43675;50.030;21.952;2023-04-08T01:05:02;99043.41;;;1.97;74.87
57847;BME280;43675;50.030;21.952;2023-04-08T01:07:33;99039.73;;;1.97;74.72
57847;BME280;43675;50.030;21.952;2023-04-08T01:10:12;99041.45;;;1.92;74.66
57847;BME280;43675;50.030;21.952;2023-04-08T01:12:41;99044.90;;;1.87;74.80
57847;BME280;43675;50.030;21.952;2023-04-08T01:15:10;99053.19;;;1.84;74.70
57847;BME280;43675;50.030;21.952;2023-04-08T01:17:37;99053.40;;;1.78;74.85
57847;BME280;43675;50.030;21.952;2023-04-08T01:20:04;99057.23;;;1.74;74.78
57847;BME280;43675;50.030;21.952;2023-04-08T01:22:33;99059.25;;;1.71;74.89
57847;BME280;43675;50.030;21.952;2023-04-08T01:25:07;99057.13;;;1.67;74.89
57847;BME280;43675;50.030;21.952;2023-04-08T01:27:35;99057.13;;;1.64;74.86
57847;BME280;43675;50.030;21.952;2023-04-08T01:30:03;99055.64;;;1.59;74.89
57847;BME280;43675;50.030;21.952;2023-04-08T01:32:29;99056.32;;;1.54;75.11
57847;BME280;43675;50.030;21.952;2023-04-08T01:34:57;99053.33;;;1.50;74.94
57847;BME280;43675;50.030;21.952;2023-04-08T01:37:24;99051.90;;;1.47;75.01
57847;BME280;43675;50.030;21.952;2023-04-08T01:39:52;99052.94;;;1.44;75.11
57847;BME280;43675;50.030;21.952;2023-04-08T01:42:21;99056.13;;;1.40;75.09
57847;BME280;43675;50.030;21.952;2023-04-08T01:44:49;99057.83;;;1.33;75.09
57847;BME280;43675;50.030;21.952;2023-04-08T01:47:17;99057.20;;;1.25;75.16
57847;BME280;43675;50.030;21.952;2023-04-08T01:49:44;99054.71;;;1.14;75.26
57847;BME280;43675;50.030;21.952;2023-04-08T01:52:11;99058.54;;;1.02;75.19
57847;BME280;43675;50.030;21.952;2023-04-08T01:54:38;99056.27;;;0.89;75.32
57847;BME280;43675;50.030;21.952;2023-04-08T01:57:04;99059.60;;;0.77;75.30
57847;BME280;43675;50.030;21.952;2023-04-08T01:59:33;99063.73;;;0.67;75.35
57847;BME280;43675;50.030;21.952;2023-04-08T02:02:00;99066.43;;;0.58;75.44
57847;BME280;43675;50.030;21.952;2023-04-08T02:04:27;99066.34;;;0.49;75.41
57847;BME280;43675;50.030;21.952;2023-04-08T02:06:54;99071.92;;;0.42;75.61
57847;BME280;43675;50.030;21.952;2023-04-08T02:09:21;99073.36;;;0.34;75.56
57847;BME280;43675;50.030;21.952;2023-04-08T02:11:47;99072.70;;;0.26;75.61
57847;BME280;43675;50.030;21.952;2023-04-08T02:14:14;99071.59;;;0.19;75.67
57847;BME280;43675;50.030;21.952;2023-04-08T02:17:16;99073.62;;;0.18;75.81
57847;BME280;43675;50.030;21.952;2023-04-08T02:19:46;99074.24;;;0.24;75.85
57847;BME280;43675;50.030;21.952;2023-04-08T02:24:59;99076.67;;;0.46;75.78
57847;BME280;43675;50.030;21.952;2023-04-08T02:27:26;99072.09;;;0.52;75.67
57847;BME280;43675;50.030;21.952;2023-04-08T02:29:54;99075.07;;;0.56;75.69
57847;BME280;43675;50.030;21.952;2023-04-08T02:32:22;99070.52;;;0.55;75.50
57847;BME280;43675;50.030;21.952;2023-04-08T02:34:49;99072.80;;;0.53;75.47
57847;BME280;43675;50.030;21.952;2023-04-08T02:37:16;99072.62;;;0.48;75.33
57847;BME280;43675;50.030;21.952;2023-04-08T02:39:42;99075.91;;;0.41;75.16
57847;BME280;43675;50.030;21.952;2023-04-08T02:42:08;99081.46;;;0.34;75.37
57847;BME280;43675;50.030;21.952;2023-04-08T02:44:35;99085.55;;;0.30;75.33
57847;BME280;43675;50.030;21.952;2023-04-08T02:47:01;99088.39;;;0.31;75.48
57847;BME280;43675;50.030;21.952;2023-04-08T02:49:28;99092.64;;;0.37;75.52
57847;BME280;43675;50.030;21.952;2023-04-08T02:51:54;99092.05;;;0.43;75.57
57847;BME280;43675;50.030;21.952;2023-04-08T02:54:20;99095.30;;;0.48;75.40
57847;BME280;43675;50.030;21.952;2023-04-08T02:56:47;99098.17;;;0.50;75.27
57847;BME280;43675;50.030;21.952;2023-04-08T02:59:13;99093.79;;;0.51;75.21
57847;BME280;43675;50.030;21.952;2023-04-08T03:01:40;99093.78;;;0.51;75.11
57847;BME280;43675;50.030;21.952;2023-04-08T03:04:06;99093.23;;;0.52;75.07
57847;BME280;43675;50.030;21.952;2023-04-08T03:06:32;99095.96;;;0.51;75.09
57847;BME280;43675;50.030;21.952;2023-04-08T03:08:59;99096.43;;;0.49;74.99
57847;BME280;43675;50.030;21.952;2023-04-08T03:11:25;99093.39;;;0.50;75.17
57847;BME280;43675;50.030;21.952;2023-04-08T03:13:51;99097.09;;;0.52;75.13
57847;BME280;43675;50.030;21.952;2023-04-08T03:16:18;99097.10;;;0.54;75.20
57847;BME280;43675;50.030;21.952;2023-04-08T03:18:44;99099.23;;;0.57;75.19
57847;BME280;43675;50.030;21.952;2023-04-08T03:21:11;99098.92;;;0.62;75.00
57847;BME280;43675;50.030;21.952;2023-04-08T03:23:37;99098.67;;;0.67;75.06
57847;BME280;43675;50.030;21.952;2023-04-08T03:26:03;99099.33;;;0.71;74.96
57847;BME280;43675;50.030;21.952;2023-04-08T03:28:30;99099.48;;;0.75;74.88
57847;BME280;43675;50.030;21.952;2023-04-08T03:30:56;99099.04;;;0.80;74.90
57847;BME280;43675;50.030;21.952;2023-04-08T03:33:22;99098.32;;;0.83;74.91
57847;BME280;43675;50.030;21.952;2023-04-08T03:35:49;99095.46;;;0.84;74.70
57847;BME280;43675;50.030;21.952;2023-04-08T03:38:15;99098.39;;;0.81;74.71
57847;BME280;43675;50.030;21.952;2023-04-08T03:40:41;99097.23;;;0.75;74.60
57847;BME280;43675;50.030;21.952;2023-04-08T03:43:08;99092.72;;;0.64;74.46
57847;BME280;43675;50.030;21.952;2023-04-08T03:45:34;99098.04;;;0.55;74.52
57847;BME280;43675;50.030;21.952;2023-04-08T03:48:01;99099.23;;;0.45;74.53
57847;BME280;43675;50.030;21.952;2023-04-08T03:50:27;99102.34;;;0.37;74.58
57847;BME280;43675;50.030;21.952;2023-04-08T03:52:53;99109.20;;;0.27;74.58
57847;BME280;43675;50.030;21.952;2023-04-08T03:55:20;99112.98;;;0.19;74.64
57847;BME280;43675;50.030;21.952;2023-04-08T03:57:46;99114.73;;;0.11;74.73
57847;BME280;43675;50.030;21.952;2023-04-08T04:00:13;99115.19;;;0.04;74.75
57847;BME280;43675;50.030;21.952;2023-04-08T04:02:39;99107.96;;;-0.02;74.66
57847;BME280;43675;50.030;21.952;2023-04-08T04:05:06;99112.24;;;-0.04;75.01
57847;BME280;43675;50.030;21.952;2023-04-08T04:07:32;99120.31;;;-0.06;74.77
57847;BME280;43675;50.030;21.952;2023-04-08T04:09:59;99126.84;;;-0.07;74.91
57847;BME280;43675;50.030;21.952;2023-04-08T04:12:25;99127.02;;;-0.06;75.06
57847;BME280;43675;50.030;21.952;2023-04-08T04:14:51;99131.21;;;-0.04;74.84
57847;BME280;43675;50.030;21.952;2023-04-08T04:17:18;99136.66;;;0.02;75.07
57847;BME280;43675;50.030;21.952;2023-04-08T04:19:44;99139.73;;;0.09;74.98
57847;BME280;43675;50.030;21.952;2023-04-08T04:22:11;99145.27;;;0.18;75.03
57847;BME280;43675;50.030;21.952;2023-04-08T04:24:37;99141.94;;;0.27;75.06
57847;BME280;43675;50.030;21.952;2023-04-08T04:27:03;99144.48;;;0.38;75.01
57847;BME280;43675;50.030;21.952;2023-04-08T04:29:30;99152.95;;;0.49;74.89
57847;BME280;43675;50.030;21.952;2023-04-08T04:31:57;99147.23;;;0.59;74.91
57847;BME280;43675;50.030;21.952;2023-04-08T04:34:23;99147.42;;;0.71;74.82
57847;BME280;43675;50.030;21.952;2023-04-08T04:36:49;99146.86;;;0.81;74.75
57847;BME280;43675;50.030;21.952;2023-04-08T04:39:16;99149.88;;;0.90;74.75
57847;BME280;43675;50.030;21.952;2023-04-08T04:41:42;99151.24;;;1.00;74.69
57847;BME280;43675;50.030;21.952;2023-04-08T04:44:08;99159.52;;;1.09;74.68
57847;BME280;43675;50.030;21.952;2023-04-08T04:46:35;99156.62;;;1.17;74.45
57847;BME280;43675;50.030;21.952;2023-04-08T04:49:01;99154.22;;;1.24;74.51
57847;BME280;43675;50.030;21.952;2023-04-08T04:51:30;99155.05;;;1.30;74.34
57847;BME280;43675;50.030;21.952;2023-04-08T04:53:56;99153.82;;;1.36;74.48
57847;BME280;43675;50.030;21.952;2023-04-08T04:56:22;99144.81;;;1.39;74.36
57847;BME280;43675;50.030;21.952;2023-04-08T04:58:49;99141.52;;;1.43;74.30
57847;BME280;43675;50.030;21.952;2023-04-08T05:01:15;99148.42;;;1.44;74.43
57847;BME280;43675;50.030;21.952;2023-04-08T05:03:41;99155.61;;;1.47;74.37
57847;BME280;43675;50.030;21.952;2023-04-08T05:06:08;99156.77;;;1.49;74.46
57847;BME280;43675;50.030;21.952;2023-04-08T05:08:34;99156.04;;;1.53;74.68
57847;BME280;43675;50.030;21.952;2023-04-08T05:11:01;99149.47;;;1.57;74.58
57847;BME280;43675;50.030;21.952;2023-04-08T05:13:27;99150.44;;;1.60;74.66
57847;BME280;43675;50.030;21.952;2023-04-08T05:15:54;99154.70;;;1.63;74.65
57847;BME280;43675;50.030;21.952;2023-04-08T05:18:20;99154.83;;;1.64;74.70
57847;BME280;43675;50.030;21.952;2023-04-08T05:20:47;99159.91;;;1.64;74.74
57847;BME280;43675;50.030;21.952;2023-04-08T05:23:13;99162.65;;;1.67;74.66
57847;BME280;43675;50.030;21.952;2023-04-08T05:25:39;99165.50;;;1.72;74.94
57847;BME280;43675;50.030;21.952;2023-04-08T05:28:06;99168.29;;;1.78;74.86
57847;BME280;43675;50.030;21.952;2023-04-08T05:30:32;99170.36;;;1.86;74.83
57847;BME280;43675;50.030;21.952;2023-04-08T05:32:59;99170.54;;;1.93;74.80
57847;BME280;43675;50.030;21.952;2023-04-08T05:35:25;99171.84;;;2.00;74.77
57847;BME280;43675;50.030;21.952;2023-04-08T05:37:52;99174.25;;;2.07;74.71
57847;BME280;43675;50.030;21.952;2023-04-08T05:40:18;99178.16;;;2.14;74.81
57847;BME280;43675;50.030;21.952;2023-04-08T05:42:44;99187.05;;;2.21;74.48
57847;BME280;43675;50.030;21.952;2023-04-08T05:45:11;99182.98;;;2.28;74.40
57847;BME280;43675;50.030;21.952;2023-04-08T05:47:37;99188.80;;;2.33;74.64
57847;BME280;43675;50.030;21.952;2023-04-08T05:50:04;99183.23;;;2.40;74.37
57847;BME280;43675;50.030;21.952;2023-04-08T05:52:30;99184.45;;;2.45;74.48
57847;BME280;43675;50.030;21.952;2023-04-08T05:54:56;99183.02;;;2.51;74.55
57847;BME280;43675;50.030;21.952;2023-04-08T05:57:23;99184.55;;;2.57;74.50
57847;BME280;43675;50.030;21.952;2023-04-08T05:59:49;99188.02;;;2.63;74.35
57847;BME280;43675;50.030;21.952;2023-04-08T06:02:16;99187.38;;;2.67;74.44
57847;BME280;43675;50.030;21.952;2023-04-08T06:04:42;99194.27;;;2.71;74.47
57847;BME280;43675;50.030;21.952;2023-04-08T06:07:09;99197.27;;;2.74;74.39
57847;BME280;43675;50.030;21.952;2023-04-08T06:09:35;99199.64;;;2.79;74.32
57847;BME280;43675;50.030;21.952;2023-04-08T06:12:01;99201.50;;;2.85;74.59
57847;BME280;43675;50.030;21.952;2023-04-08T06:14:28;99203.93;;;2.93;74.35
57847;BME280;43675;50.030;21.952;2023-04-08T06:16:54;99203.75;;;3.00;74.50
57847;BME280;43675;50.030;21.952;2023-04-08T06:19:21;99201.81;;;3.06;73.98
57847;BME280;43675;50.030;21.952;2023-04-08T06:21:47;99200.29;;;3.14;74.35
57847;BME280;43675;50.030;21.952;2023-04-08T06:24:13;99209.13;;;3.21;74.17
57847;BME280;43675;50.030;21.952;2023-04-08T06:26:40;99208.02;;;3.29;74.28
57847;BME280;43675;50.030;21.952;2023-04-08T06:29:06;99201.56;;;3.36;74.21
57847;BME280;43675;50.030;21.952;2023-04-08T06:31:33;99200.49;;;3.45;74.36
57847;BME280;43675;50.030;21.952;2023-04-08T06:33:59;99198.60;;;3.55;74.26
57847;BME280;43675;50.030;21.952;2023-04-08T06:36:25;99199.33;;;3.63;74.33
57847;BME280;43675;50.030;21.952;2023-04-08T06:38:52;99203.76;;;3.70;74.22
57847;BME280;43675;50.030;21.952;2023-04-08T06:41:18;99206.75;;;3.77;74.18
57847;BME280;43675;50.030;21.952;2023-04-08T06:43:45;99205.77;;;3.85;74.14
57847;BME280;43675;50.030;21.952;2023-04-08T06:46:11;99208.64;;;3.93;74.02
57847;BME280;43675;50.030;21.952;2023-04-08T06:48:37;99207.07;;;3.97;74.06
57847;BME280;43675;50.030;21.952;2023-04-08T06:51:04;99209.16;;;3.98;73.71
57847;BME280;43675;50.030;21.952;2023-04-08T06:53:30;99209.73;;;3.99;73.78
57847;BME280;43675;50.030;21.952;2023-04-08T06:55:56;99212.00;;;4.01;73.98
57847;BME280;43675;50.030;21.952;2023-04-08T06:58:23;99215.64;;;4.04;73.90
57847;BME280;43675;50.030;21.952;2023-04-08T07:00:49;99215.52;;;4.08;73.80
57847;BME280;43675;50.030;21.952;2023-04-08T07:03:15;99215.11;;;4.14;73.99
57847;BME280;43675;50.030;21.952;2023-04-08T07:05:42;99215.58;;;4.19;74.10
57847;BME280;43675;50.030;21.952;2023-04-08T07:08:08;99216.27;;;4.26;73.88
57847;BME280;43675;50.030;21.952;2023-04-08T07:10:35;99219.98;;;4.33;73.60
57847;BME280;43675;50.030;21.952;2023-04-08T07:13:01;99217.94;;;4.39;73.57
57847;BME280;43675;50.030;21.952;2023-04-08T07:15:28;99222.35;;;4.45;73.75
57847;BME280;43675;50.030;21.952;2023-04-08T07:17:54;99218.88;;;4.53;73.62
57847;BME280;43675;50.030;21.952;2023-04-08T07:20:21;99221.21;;;4.63;73.63
57847;BME280;43675;50.030;21.952;2023-04-08T07:22:47;99217.02;;;4.70;73.69
57847;BME280;43675;50.030;21.952;2023-04-08T07:25:14;99217.08;;;4.76;73.62
57847;BME280;43675;50.030;21.952;2023-04-08T07:27:40;99214.10;;;4.81;73.64
57847;BME280;43675;50.030;21.952;2023-04-08T07:30:07;99220.78;;;4.86;73.53
57847;BME280;43675;50.030;21.952;2023-04-08T07:32:34;99222.55;;;4.91;73.61
57847;BME280;43675;50.030;21.952;2023-04-08T07:35:00;99226.51;;;4.96;73.40
57847;BME280;43675;50.030;21.952;2023-04-08T07:37:27;99224.35;;;4.96;73.42
57847;BME280;43675;50.030;21.952;2023-04-08T07:39:53;99230.43;;;4.94;73.40
57847;BME280;43675;50.030;21.952;2023-04-08T07:42:19;99239.80;;;4.91;73.28
57847;BME280;43675;50.030;21.952;2023-04-08T07:44:46;99249.52;;;4.85;73.43
57847;BME280;43675;50.030;21.952;2023-04-08T07:47:12;99247.49;;;4.77;73.21
57847;BME280;43675;50.030;21.952;2023-04-08T07:49:39;99245.59;;;4.70;73.46
57847;BME280;43675;50.030;21.952;2023-04-08T07:52:05;99244.63;;;4.66;73.61
57847;BME280;43675;50.030;21.952;2023-04-08T07:54:32;99246.87;;;4.64;73.49
57847;BME280;43675;50.030;21.952;2023-04-08T07:56:58;99253.64;;;4.62;73.62
57847;BME280;43675;50.030;21.952;2023-04-08T07:59:25;99246.84;;;4.62;73.62
57847;BME280;43675;50.030;21.952;2023-04-08T08:01:51;99241.48;;;4.64;73.77
57847;BME280;43675;50.030;21.952;2023-04-08T08:04:18;99241.33;;;4.68;73.57
57847;BME280;43675;50.030;21.952;2023-04-08T08:06:45;99243.66;;;4.73;73.61
57847;BME280;43675;50.030;21.952;2023-04-08T08:09:11;99248.60;;;4.80;73.53
57847;BME280;43675;50.030;21.952;2023-04-08T08:11:38;99248.58;;;4.87;73.53
57847;BME280;43675;50.030;21.952;2023-04-08T08:14:04;99246.79;;;4.93;73.45
57847;BME280;43675;50.030;21.952;2023-04-08T08:16:31;99242.84;;;5.00;73.31
57847;BME280;43675;50.030;21.952;2023-04-08T08:18:57;99240.11;;;5.07;73.17
57847;BME280;43675;50.030;21.952;2023-04-08T08:21:24;99239.92;;;5.15;73.20
57847;BME280;43675;50.030;21.952;2023-04-08T08:23:53;99241.69;;;5.25;73.19
57847;BME280;43675;50.030;21.952;2023-04-08T08:26:20;99245.48;;;5.36;73.10
57847;BME280;43675;50.030;21.952;2023-04-08T08:28:46;99245.69;;;5.47;72.97
57847;BME280;43675;50.030;21.952;2023-04-08T08:31:12;99239.52;;;5.54;72.94
57847;BME280;43675;50.030;21.952;2023-04-08T08:33:39;99241.30;;;5.62;72.86
57847;BME280;43675;50.030;21.952;2023-04-08T08:36:05;99242.02;;;5.70;72.93
57847;BME280;43675;50.030;21.952;2023-04-08T08:38:32;99245.37;;;5.77;72.89
57847;BME280;43675;50.030;21.952;2023-04-08T08:40:59;99249.02;;;5.82;73.00
57847;BME280;43675;50.030;21.952;2023-04-08T08:43:26;99245.25;;;5.84;72.90
57847;BME280;43675;50.030;21.952;2023-04-08T08:45:54;99243.53;;;5.84;72.78
57847;BME280;43675;50.030;21.952;2023-04-08T08:48:21;99246.06;;;5.84;72.96
57847;BME280;43675;50.030;21.952;2023-04-08T08:50:47;99250.74;;;5.84;73.09
57847;BME280;43675;50.030;21.952;2023-04-08T08:53:13;99256.06;;;5.86;73.06
57847;BME280;43675;50.030;21.952;2023-04-08T08:55:40;99263.45;;;5.90;73.17
57847;BME280;43675;50.030;21.952;2023-04-08T08:58:06;99268.17;;;5.94;73.15
57847;BME280;43675;50.030;21.952;2023-04-08T09:00:41;99274.77;;;5.95;72.98
57847;BME280;43675;50.030;21.952;2023-04-08T09:03:15;99265.10;;;5.96;72.90
57847;BME280;43675;50.030;21.952;2023-04-08T09:11:09;99279.55;;;6.06;73.07
57847;BME280;43675;50.030;21.952;2023-04-08T09:13:36;99284.05;;;6.12;72.92
57847;BME280;43675;50.030;21.952;2023-04-08T09:16:03;99284.92;;;6.17;72.75
57847;BME280;43675;50.030;21.952;2023-04-08T09:18:30;99280.52;;;6.17;72.74
57847;BME280;43675;50.030;21.952;2023-04-08T09:20:59;99275.95;;;6.19;72.71
57847;BME280;43675;50.030;21.952;2023-04-08T09:26:09;99283.44;;;6.23;72.56
57847;BME280;43675;50.030;21.952;2023-04-08T09:28:36;99281.68;;;6.19;72.50
57847;BME280;43675;50.030;21.952;2023-04-08T09:31:18;99289.34;;;6.17;72.49
57847;BME280;43675;50.030;21.952;2023-04-08T09:33:45;99285.15;;;6.18;72.48
57847;BME280;43675;50.030;21.952;2023-04-08T09:36:12;99280.19;;;6.28;72.59
57847;BME280;43675;50.030;21.952;2023-04-08T09:38:39;99287.21;;;6.44;72.62
57847;BME280;43675;50.030;21.952;2023-04-08T09:41:06;99287.92;;;6.65;72.59
57847;BME280;43675;50.030;21.952;2023-04-08T09:43:35;99287.13;;;6.88;72.38
57847;BME280;43675;50.030;21.952;2023-04-08T09:46:07;99285.83;;;7.08;72.09
57847;BME280;43675;50.030;21.952;2023-04-08T09:48:42;99285.70;;;7.26;72.10
57847;BME280;43675;50.030;21.952;2023-04-08T09:51:12;99288.19;;;7.41;71.91
57847;BME280;43675;50.030;21.952;2023-04-08T09:53:44;99288.44;;;7.54;71.72
57847;BME280;43675;50.030;21.952;2023-04-08T09:56:11;99285.48;;;7.62;71.50
57847;BME280;43675;50.030;21.952;2023-04-08T09:58:48;99285.23;;;7.66;71.53
57847;BME280;43675;50.030;21.952;2023-04-08T10:01:17;99283.19;;;7.67;71.38
57847;BME280;43675;50.030;21.952;2023-04-08T10:03:48;99274.13;;;7.71;71.42
57847;BME280;43675;50.030;21.952;2023-04-08T10:06:17;99274.84;;;7.74;71.33
57847;BME280;43675;50.030;21.952;2023-04-08T10:08:44;99273.90;;;7.77;71.43
57847;BME280;43675;50.030;21.952;2023-04-08T10:11:11;99278.71;;;7.83;71.55
57847;BME280;43675;50.030;21.952;2023-04-08T10:13:39;99280.88;;;7.90;71.59
57847;BME280;43675;50.030;21.952;2023-04-08T10:18:41;99282.74;;;8.16;71.35
57847;BME280;43675;50.030;21.952;2023-04-08T10:23:54;99282.31;;;8.18;70.87
57847;BME280;43675;50.030;21.952;2023-04-08T10:26:31;99280.84;;;8.13;71.00
57847;BME280;43675;50.030;21.952;2023-04-08T10:29:21;99280.01;;;8.06;70.96
57847;BME280;43675;50.030;21.952;2023-04-08T10:31:44;99276.52;;;8.04;71.04
57847;BME280;43675;50.030;21.952;2023-04-08T10:34:29;99277.80;;;8.07;71.18
57847;BME280;43675;50.030;21.952;2023-04-08T10:36:56;99278.89;;;8.08;71.09
57847;BME280;43675;50.030;21.952;2023-04-08T10:39:23;99280.50;;;8.08;70.94
57847;BME280;43675;50.030;21.952;2023-04-08T10:41:50;99279.70;;;8.07;71.01
57847;BME280;43675;50.030;21.952;2023-04-08T10:44:23;99281.46;;;8.15;71.35
57847;BME280;43675;50.030;21.952;2023-04-08T10:46:50;99279.50;;;8.22;71.16
57847;BME280;43675;50.030;21.952;2023-04-08T10:49:17;99280.60;;;8.30;71.03
57847;BME280;43675;50.030;21.952;2023-04-08T10:51:44;99278.77;;;8.36;71.09
57847;BME280;43675;50.030;21.952;2023-04-08T10:54:11;99274.13;;;8.39;70.86
57847;BME280;43675;50.030;21.952;2023-04-08T10:56:45;99275.64;;;8.42;70.79
57847;BME280;43675;50.030;21.952;2023-04-08T10:59:13;99278.41;;;8.43;70.66
57847;BME280;43675;50.030;21.952;2023-04-08T11:01:40;99275.38;;;8.38;70.74
57847;BME280;43675;50.030;21.952;2023-04-08T11:04:13;99278.41;;;8.33;70.81
57847;BME280;43675;50.030;21.952;2023-04-08T11:06:43;99274.02;;;8.28;70.80
57847;BME280;43675;50.030;21.952;2023-04-08T11:09:10;99270.33;;;8.23;70.79
57847;BME280;43675;50.030;21.952;2023-04-08T11:11:36;99267.83;;;8.20;70.97
57847;BME280;43675;50.030;21.952;2023-04-08T11:14:03;99267.15;;;8.20;71.01
57847;BME280;43675;50.030;21.952;2023-04-08T11:16:30;99267.86;;;8.23;71.18
57847;BME280;43675;50.030;21.952;2023-04-08T11:18:56;99267.19;;;8.30;70.89
57847;BME280;43675;50.030;21.952;2023-04-08T11:21:23;99270.26;;;8.40;71.13
57847;BME280;43675;50.030;21.952;2023-04-08T11:23:49;99270.86;;;8.51;70.92
57847;BME280;43675;50.030;21.952;2023-04-08T11:26:16;99268.86;;;8.55;70.66
57847;BME280;43675;50.030;21.952;2023-04-08T11:28:43;99266.84;;;8.59;70.59
57847;BME280;43675;50.030;21.952;2023-04-08T11:31:10;99266.31;;;8.63;70.78
57847;BME280;43675;50.030;21.952;2023-04-08T11:33:37;99268.55;;;8.61;70.81
57847;BME280;43675;50.030;21.952;2023-04-08T11:36:09;99268.48;;;8.59;70.98
57847;BME280;43675;50.030;21.952;2023-04-08T11:38:38;99269.09;;;8.58;71.03
57847;BME280;43675;50.030;21.952;2023-04-08T11:41:04;99268.10;;;8.58;71.12
57847;BME280;43675;50.030;21.952;2023-04-08T11:43:31;99266.33;;;8.62;71.22
57847;BME280;43675;50.030;21.952;2023-04-08T11:45:57;99263.33;;;8.69;71.21
57847;BME280;43675;50.030;21.952;2023-04-08T11:48:24;99263.98;;;8.75;71.07
57847;BME280;43675;50.030;21.952;2023-04-08T11:51:01;99260.86;;;8.79;70.91
57847;BME280;43675;50.030;21.952;2023-04-08T11:53:28;99261.76;;;8.85;70.86
57847;BME280;43675;50.030;21.952;2023-04-08T11:55:54;99261.17;;;8.96;70.75
57847;BME280;43675;50.030;21.952;2023-04-08T11:58:20;99263.77;;;9.04;70.75
57847;BME280;43675;50.030;21.952;2023-04-08T12:00:47;99261.21;;;9.11;70.69
57847;BME280;43675;50.030;21.952;2023-04-08T12:03:13;99263.80;;;9.19;70.84
57847;BME280;43675;50.030;21.952;2023-04-08T12:05:40;99261.28;;;9.32;70.65
57847;BME280;43675;50.030;21.952;2023-04-08T12:08:06;99259.21;;;9.47;70.62
57847;BME280;43675;50.030;21.952;2023-04-08T12:10:32;99255.39;;;9.66;70.38
57847;BME280;43675;50.030;21.952;2023-04-08T12:12:59;99253.91;;;9.85;70.33
57847;BME280;43675;50.030;21.952;2023-04-08T12:15:25;99246.94;;;10.08;70.28
57847;BME280;43675;50.030;21.952;2023-04-08T12:17:52;99244.20;;;10.33;70.23
57847;BME280;43675;50.030;21.952;2023-04-08T12:20:18;99239.66;;;10.58;70.05
57847;BME280;43675;50.030;21.952;2023-04-08T12:22:44;99243.84;;;10.77;69.80
57847;BME280;43675;50.030;21.952;2023-04-08T12:25:11;99244.63;;;10.92;69.60
57847;BME280;43675;50.030;21.952;2023-04-08T12:27:37;99242.92;;;11.00;69.73
57847;BME280;43675;50.030;21.952;2023-04-08T12:30:04;99240.05;;;11.05;69.60
57847;BME280;43675;50.030;21.952;2023-04-08T12:32:30;99237.47;;;11.03;69.55
57847;BME280;43675;50.030;21.952;2023-04-08T12:34:56;99234.04;;;11.01;69.58
57847;BME280;43675;50.030;21.952;2023-04-08T12:37:23;99237.92;;;11.03;69.79
57847;BME280;43675;50.030;21.952;2023-04-08T12:39:49;99237.69;;;11.05;69.79
57847;BME280;43675;50.030;21.952;2023-04-08T12:42:16;99234.85;;;11.11;69.87
57847;BME280;43675;50.030;21.952;2023-04-08T12:44:42;99231.17;;;11.22;69.72
57847;BME280;43675;50.030;21.952;2023-04-08T12:47:08;99233.42;;;11.31;69.65
57847;BME280;43675;50.030;21.952;2023-04-08T12:49:35;99229.98;;;11.39;69.53
57847;BME280;43675;50.030;21.952;2023-04-08T12:52:01;99229.13;;;11.47;69.49
57847;BME280;43675;50.030;21.952;2023-04-08T12:54:27;99229.21;;;11.52;69.54
57847;BME280;43675;50.030;21.952;2023-04-08T12:56:54;99229.22;;;11.57;69.46
57847;BME280;43675;50.030;21.952;2023-04-08T12:59:20;99226.32;;;11.62;69.30
57847;BME280;43675;50.030;21.952;2023-04-08T13:01:47;99226.40;;;11.65;69.14
57847;BME280;43675;50.030;21.952;2023-04-08T13:04:13;99231.35;;;11.67;69.01
57847;BME280;43675;50.030;21.952;2023-04-08T13:06:39;99231.41;;;11.72;69.01
57847;BME280;43675;50.030;21.952;2023-04-08T13:09:06;99230.77;;;11.80;68.88
57847;BME280;43675;50.030;21.952;2023-04-08T13:11:32;99231.29;;;11.86;68.91
57847;BME280;43675;50.030;21.952;2023-04-08T13:13:59;99228.33;;;11.96;68.99
57847;BME280;43675;50.030;21.952;2023-04-08T13:16:25;99227.77;;;12.04;68.92